Time;durP1;ratioP1;P1;durP2;ratioP2;P2;SDS_P1;SDS_P2;PMS_P1;PMS_P2;Temp;Humidity;BMP_temperature;BMP_pressure;BME280_temperature;BME280_humidity;BME280_pressure;Samples;Min_cycle;Max_cycle;Signal;HPM_P1;HPM_P2
2021/01/30 00:02:00;;;;;;;0.35;0.00;;;1.90;94.80;;;;;;21054095;28;20336;-55
2021/01/30 00:12:02;;;;;;;0.00;0.00;;;1.20;97.00;;;;;;21115428;28;20084;-55
2021/01/30 00:22:17;;;;;;;0.00;0.00;;;0.80;96.70;;;;;;21164292;27;20391;-55
2021/01/30 00:32:20;;;;;;;0.10;0.00;;;0.70;97.50;;;;;;21158488;27;20454;-55
2021/01/30 00:42:24;;;;;;;0.00;0.00;;;1.30;95.60;;;;;;21192860;27;20481;-52
2021/01/30 00:52:26;;;;;;;0.10;0.00;;;1.40;94.90;;;;;;21213588;27;20068;-56
2021/01/30 01:02:51;;;;;;;0.00;0.00;;;0.80;97.60;;;;;;21166227;27;20055;-51
2021/01/30 01:12:56;;;;;;;0.00;0.00;;;0.30;99.60;;;;;;21128616;28;20053;-55
2021/01/30 01:22:58;;;;;;;0.00;0.00;;;0.40;97.40;;;;;;21135007;27;20377;-53
2021/01/30 01:33:01;;;;;;;0.00;0.00;;;0.30;97.50;;;;;;21184429;27;20470;-53
2021/01/30 01:43:12;;;;;;;0.00;0.00;;;0.20;98.90;;;;;;21108601;28;20452;-53
2021/01/30 01:53:15;;;;;;;;;;;-0.10;97.80;;;;;;21147505;28;20035;-53
2021/01/30 02:03:18;;;;;;;0.00;0.00;;;-0.10;98.20;;;;;;21143486;28;19916;-55
2021/01/30 02:13:27;;;;;;;0.00;0.00;;;-0.20;99.00;;;;;;21154572;28;20538;-55
2021/01/30 02:23:54;;;;;;;0.00;0.00;;;-0.20;98.50;;;;;;21163785;28;20101;-54
2021/01/30 02:34:10;;;;;;;0.00;0.00;;;-0.10;98.80;;;;;;21126014;28;20439;-55
2021/01/30 02:44:14;;;;;;;0.00;0.00;;;0.00;98.20;;;;;;21122926;28;20040;-58
2021/01/30 02:54:17;;;;;;;0.00;0.00;;;-0.10;97.10;;;;;;21136853;28;20447;-53
2021/01/30 03:04:23;;;;;;;0.00;0.00;;;0.10;97.60;;;;;;21148824;28;20105;-54
2021/01/30 03:14:28;;;;;;;0.00;0.00;;;0.20;97.70;;;;;;21136837;28;20555;-55
2021/01/30 03:24:30;;;;;;;0.00;0.00;;;0.20;97.00;;;;;;21192142;27;20435;-55
2021/01/30 03:34:32;;;;;;;0.00;0.00;;;-0.20;98.90;;;;;;21217327;27;20414;-56
2021/01/30 03:44:34;;;;;;;0.03;0.00;;;-0.40;99.90;;;;;;21147971;28;20056;-57
2021/01/30 03:54:36;;;;;;;0.00;0.00;;;-0.70;99.50;;;;;;21049684;28;20036;-55
2021/01/30 04:04:38;;;;;;;0.00;0.00;;;-0.80;99.90;;;;;;21066605;28;20051;-59
2021/01/30 04:14:40;;;;;;;0.00;0.00;;;-1.00;99.90;;;;;;21032118;28;20591;-53
2021/01/30 04:24:44;;;;;;;0.10;0.00;;;-1.10;99.90;;;;;;21065723;28;20040;-54
2021/01/30 04:34:46;;;;;;;0.00;0.00;;;-0.90;99.90;;;;;;21076239;28;20066;-51
2021/01/30 04:45:19;;;;;;;0.10;0.00;;;-0.70;99.90;;;;;;21029404;28;20035;-57
2021/01/30 04:55:23;;;;;;;0.00;0.00;;;-0.70;99.90;;;;;;21075281;28;20088;-55
2021/01/30 05:05:28;;;;;;;0.00;0.00;;;-0.50;98.70;;;;;;21032713;28;20117;-55
2021/01/30 05:15:39;;;;;;;0.00;0.00;;;0.10;95.90;;;;;;21042812;28;20047;-53
2021/01/30 05:25:43;;;;;;;0.00;0.00;;;0.60;97.20;;;;;;21009734;28;20044;-53
2021/01/30 05:36:11;;;;;;;0.15;0.00;;;0.00;97.80;;;;;;21041771;28;20085;-54
2021/01/30 05:46:21;;;;;;;0.05;0.00;;;0.20;96.30;;;;;;21041834;28;20062;-56
2021/01/30 05:56:24;;;;;;;0.10;0.00;;;0.40;96.10;;;;;;21040505;28;20474;-56
2021/01/30 06:06:41;;;;;;;0.00;0.00;;;0.30;97.20;;;;;;21023333;28;20048;-55
2021/01/30 06:16:48;;;;;;;0.63;0.00;;;-0.10;98.90;;;;;;21057262;28;20436;-53
2021/01/30 06:26:51;;;;;;;0.20;0.00;;;-0.40;99.70;;;;;;21045651;28;20069;-56
2021/01/30 06:36:53;;;;;;;0.00;0.00;;;-0.80;99.90;;;;;;21055719;28;20032;-55
2021/01/30 06:47:10;;;;;;;0.00;0.00;;;-1.00;99.90;;;;;;21039555;28;20036;-55
2021/01/30 06:57:27;;;;;;;0.05;0.00;;;-1.00;99.90;;;;;;21054918;28;20036;-55
2021/01/30 07:07:31;;;;;;;0.00;0.00;;;-0.90;99.60;;;;;;21053102;28;20193;-53
2021/01/30 07:17:58;;;;;;;1.55;0.00;;;0.40;92.40;;;;;;21036433;28;20082;-56
2021/01/30 07:28:19;;;;;;;0.22;0.00;;;3.20;71.40;;;;;;21069331;28;20055;-59
2021/01/30 07:38:50;;;;;;;0.00;0.00;;;3.50;74.30;;;;;;21066204;28;20034;-54
2021/01/30 07:48:56;;;;;;;0.00;0.00;;;5.30;54.40;;;;;;21042251;28;20393;-56
2021/01/30 07:59:19;;;;;;;0.00;0.00;;;5.80;52.60;;;;;;21048942;28;20043;-54
2021/01/30 08:10:00;;;;;;;0.00;0.00;;;6.20;53.80;;;;;;21078694;28;20093;-57
2021/01/30 08:20:19;;;;;;;0.00;0.00;;;6.40;54.80;;;;;;21038973;28;20040;-57
2021/01/30 08:30:23;;;;;;;0.00;0.00;;;6.30;59.50;;;;;;21045544;28;20040;-53
2021/01/30 08:40:44;;;;;;;0.00;0.00;;;6.00;56.00;;;;;;21044997;28;20497;-49
2021/01/30 08:50:48;;;;;;;0.00;0.00;;;6.60;62.00;;;;;;21077586;28;20482;-60
2021/01/30 09:00:53;;;;;;;0.00;0.00;;;6.90;52.70;;;;;;21043510;28;20040;-55
2021/01/30 09:11:18;;;;;;;0.20;0.00;;;7.50;50.80;;;;;;21041923;28;20077;-53
2021/01/30 09:21:27;;;;;;;0.00;0.00;;;7.70;57.30;;;;;;21041515;28;20116;-52
2021/01/30 09:31:29;;;;;;;0.10;0.10;;;7.20;58.20;;;;;;20931935;22;20045;-57
2021/01/30 09:41:34;;;;;;;0.35;0.00;;;8.00;60.90;;;;;;20810045;28;20380;-59
2021/01/30 09:51:41;;;;;;;0.10;0.00;;;7.50;60.70;;;;;;20823343;28;20095;-58
2021/01/30 10:01:45;;;;;;;1.25;0.25;;;8.80;58.60;;;;;;20825189;28;20074;-54
2021/01/30 10:11:52;;;;;;;0.25;0.10;;;9.70;57.10;;;;;;20810531;28;20041;-58
2021/01/30 10:21:55;;;;;;;0.13;0.08;;;10.10;51.40;;;;;;20824360;28;20037;-57
2021/01/30 10:32:01;;;;;;;0.20;0.10;;;10.60;52.40;;;;;;20824044;28;20045;-59
2021/01/30 10:42:14;;;;;;;0.00;0.00;;;10.70;53.20;;;;;;20823193;28;20491;-61
2021/01/30 10:52:25;;;;;;;0.55;0.20;;;10.60;50.00;;;;;;20822756;28;20038;-58
2021/01/30 11:02:41;;;;;;;0.10;0.10;;;10.60;50.80;;;;;;20823379;28;20076;-58
2021/01/30 11:12:43;;;;;;;0.80;0.50;;;10.50;52.40;;;;;;20767127;28;20057;-60
2021/01/30 11:22:50;;;;;;;0.32;0.10;;;10.10;53.30;;;;;;20776742;28;20068;-59
2021/01/30 11:33:04;;;;;;;0.05;0.00;;;10.40;50.80;;;;;;20754322;28;20076;-56
2021/01/30 11:43:07;;;;;;;0.20;0.03;;;9.80;49.70;;;;;;20832545;28;20495;-56
2021/01/30 11:53:18;;;;;;;0.10;0.00;;;10.00;44.50;;;;;;20817078;28;20091;-57
2021/01/30 12:03:24;;;;;;;;;;;9.20;47.40;;;;;;20999261;22;20571;-66
2021/01/30 12:13:27;;;;;;;0.43;0.10;;;8.80;51.70;;;;;;20833642;28;19913;-66
2021/01/30 12:23:29;;;;;;;0.40;0.13;;;9.10;46.40;;;;;;20844999;28;20039;-66
2021/01/30 12:33:31;;;;;;;0.00;0.00;;;9.30;51.10;;;;;;20908791;28;20107;-67
2021/01/30 12:43:33;;;;;;;0.05;0.00;;;9.30;49.70;;;;;;20927391;28;20044;-66
2021/01/30 12:53:37;;;;;;;0.10;0.00;;;9.40;46.80;;;;;;20910851;28;20037;-66
2021/01/30 13:03:39;;;;;;;0.32;0.00;;;9.10;49.60;;;;;;20856966;28;20104;-65
2021/01/30 13:13:44;;;;;;;0.28;0.00;;;9.10;44.30;;;;;;20912211;28;20102;-65
2021/01/30 13:23:47;;;;;;;0.47;0.10;;;9.70;48.20;;;;;;20923681;28;20102;-66
2021/01/30 13:33:49;;;;;;;0.73;0.30;;;9.50;52.50;;;;;;20906335;28;20037;-65
2021/01/30 13:43:51;;;;;;;0.57;0.30;;;8.70;57.60;;;;;;20908129;28;20049;-65
2021/01/30 13:53:53;;;;;;;0.32;0.13;;;8.10;59.50;;;;;;20908945;28;20268;-65
2021/01/30 14:04:02;;;;;;;0.20;0.10;;;7.80;54.40;;;;;;20907919;28;20052;-65
2021/01/30 14:14:04;;;;;;;2.88;0.40;;;7.70;59.50;;;;;;20908253;28;20118;-65
2021/01/30 14:24:07;;;;;;;0.03;0.00;;;7.40;63.50;;;;;;20906516;28;20410;-65
2021/01/30 14:34:10;;;;;;;0.57;0.10;;;7.00;55.70;;;;;;20904461;28;20064;-65
2021/01/30 14:44:13;;;;;;;0.65;0.03;;;6.80;61.40;;;;;;20907458;28;20049;-65
2021/01/30 14:54:15;;;;;;;2.63;1.30;;;6.60;56.10;;;;;;20920451;28;20033;-65
2021/01/30 15:04:17;;;;;;;1.05;0.70;;;6.10;71.90;;;;;;20921142;28;20045;-65
2021/01/30 15:14:19;;;;;;;3.45;0.77;;;5.10;77.90;;;;;;20919547;28;20036;-64
2021/01/30 15:24:21;;;;;;;1.08;0.60;;;4.50;86.00;;;;;;20958619;28;20037;-64
2021/01/30 15:34:23;;;;;;;2.10;1.00;;;4.30;85.20;;;;;;20992613;28;20033;-65
2021/01/30 15:44:25;;;;;;;2.15;1.10;;;4.40;81.50;;;;;;20899522;28;20052;-64
2021/01/30 15:54:27;;;;;;;2.42;0.98;;;4.30;82.80;;;;;;20909546;28;20441;-65
2021/01/30 16:04:29;;;;;;;1.95;0.80;;;3.90;86.40;;;;;;20915688;28;20106;-65
2021/01/30 16:14:32;;;;;;;2.47;0.40;;;3.50;86.80;;;;;;20914724;28;20487;-64
2021/01/30 16:24:34;;;;;;;2.60;0.50;;;3.30;89.70;;;;;;20944316;28;20114;-65
2021/01/30 16:34:38;;;;;;;0.50;0.10;;;3.20;92.10;;;;;;20911567;28;20040;-64
2021/01/30 16:44:40;;;;;;;1.52;0.20;;;2.80;95.20;;;;;;20895287;28;20115;-64
2021/01/30 16:54:43;;;;;;;1.83;0.30;;;2.50;97.70;;;;;;20912329;28;20110;-64
2021/01/30 17:04:46;;;;;;;0.80;0.30;;;2.40;99.90;;;;;;20910505;28;20041;-64
2021/01/30 17:14:48;;;;;;;0.70;0.28;;;2.10;99.90;;;;;;20909973;28;20434;-64
2021/01/30 17:24:51;;;;;;;2.80;0.50;;;1.80;99.90;;;;;;20930853;28;20048;-64
2021/01/30 17:34:55;;;;;;;6.45;0.90;;;1.50;99.90;;;;;;20984844;28;20037;-64
2021/01/30 17:44:58;;;;;;;4.80;0.82;;;1.50;99.90;;;;;;20975519;28;20048;-64
2021/01/30 17:55:00;;;;;;;5.15;1.13;;;1.80;99.90;;;;;;20990350;28;20086;-64
2021/01/30 18:05:03;;;;;;;5.85;1.02;;;1.90;99.90;;;;;;20989957;28;20102;-64
2021/01/30 18:15:07;;;;;;;10.35;1.55;;;2.00;99.90;;;;;;20990112;28;20036;-64
2021/01/30 18:25:11;;;;;;;9.63;1.42;;;2.00;99.90;;;;;;20957465;28;20449;-64
2021/01/30 18:35:13;;;;;;;5.25;0.73;;;2.20;99.90;;;;;;20923646;28;20029;-65
2021/01/30 18:45:16;;;;;;;7.28;1.20;;;2.10;99.90;;;;;;20922919;28;20548;-64
2021/01/30 18:55:21;;;;;;;8.60;1.38;;;2.10;99.90;;;;;;20921105;28;20144;-64
2021/01/30 19:05:23;;;;;;;8.40;0.90;;;2.20;99.90;;;;;;20919480;28;20045;-64
2021/01/30 19:15:27;;;;;;;7.18;1.30;;;2.20;99.90;;;;;;20918989;28;20041;-64
2021/01/30 19:25:29;;;;;;;8.65;1.10;;;2.20;99.90;;;;;;20919709;28;20037;-65
2021/01/30 19:35:33;;;;;;;7.95;0.90;;;2.20;99.90;;;;;;20907274;28;20041;-64
2021/01/30 19:45:35;;;;;;;7.70;1.17;;;2.20;99.90;;;;;;20802792;28;20077;-65
2021/01/30 19:55:40;;;;;;;9.18;1.05;;;2.20;99.90;;;;;;20894148;28;20033;-64
2021/01/30 20:05:43;;;;;;;6.97;1.20;;;2.30;99.90;;;;;;20897636;28;20045;-64
2021/01/30 20:15:48;;;;;;;6.38;0.90;;;2.40;99.90;;;;;;20914959;28;20044;-64
2021/01/30 20:25:51;;;;;;;9.30;1.00;;;2.30;99.90;;;;;;20913847;28;20033;-67
2021/01/30 20:35:53;;;;;;;8.40;1.00;;;2.60;99.90;;;;;;20895997;28;20072;-64
2021/01/30 20:45:59;;;;;;;4.22;1.08;;;2.70;99.90;;;;;;20894929;28;20049;-64
2021/01/30 20:56:02;;;;;;;9.98;1.13;;;2.60;99.90;;;;;;20911145;28;20045;-64
2021/01/30 21:06:05;;;;;;;11.65;1.42;;;2.40;99.90;;;;;;20910097;28;20049;-64
2021/01/30 21:16:08;;;;;;;5.68;0.73;;;2.60;99.90;;;;;;20911042;28;20059;-64
2021/01/30 21:26:10;;;;;;;7.68;0.90;;;2.60;99.90;;;;;;20910110;28;20343;-64
2021/01/30 21:36:13;;;;;;;5.72;0.82;;;2.40;99.90;;;;;;20891334;28;20036;-64
2021/01/30 21:46:16;;;;;;;4.57;0.60;;;2.40;99.90;;;;;;20891688;28;20083;-64
2021/01/30 21:56:20;;;;;;;8.50;0.95;;;2.30;99.90;;;;;;20889887;28;20391;-63
2021/01/30 22:06:22;;;;;;;5.88;0.70;;;2.30;99.90;;;;;;20890782;28;20045;-63
2021/01/30 22:16:25;;;;;;;3.72;0.50;;;2.20;99.90;;;;;;20907560;28;20490;-63
2021/01/30 22:26:32;;;;;;;11.60;1.50;;;2.00;99.90;;;;;;20905743;28;20450;-63
2021/01/30 22:36:34;;;;;;;5.80;1.23;;;1.90;99.90;;;;;;20887763;28;20395;-63
2021/01/30 22:46:36;;;;;;;13.32;1.40;;;1.80;99.90;;;;;;20906701;28;20438;-62
2021/01/30 22:56:45;;;;;;;7.40;1.35;;;1.60;99.90;;;;;;20905592;28;20029;-61
2021/01/30 23:06:47;;;;;;;5.35;1.50;;;1.50;99.90;;;;;;20908108;28;20395;-61
2021/01/30 23:16:54;;;;;;;6.60;1.60;;;1.50;99.90;;;;;;20919767;28;20552;-60
2021/01/30 23:26:57;;;;;;;7.15;1.60;;;1.40;99.90;;;;;;20919026;28;20037;-59
2021/01/30 23:37:01;;;;;;;6.97;3.20;;;1.20;99.90;;;;;;20918234;28;20037;-59
2021/01/30 23:47:03;;;;;;;6.03;3.00;;;1.00;99.90;;;;;;20918568;28;20052;-59
2021/01/30 23:57:05;;;;;;;6.22;2.90;;;1.00;99.90;;;;;;20916598;28;20032;-58
